Time;durP1;ratioP1;P1;durP2;ratioP2;P2;SDS_P1;SDS_P2;PMS_P1;PMS_P2;Temp;Humidity;BMP_temperature;BMP_pressure;BME280_temperature;BME280_humidity;BME280_pressure;Samples;Min_cycle;Max_cycle;Signal;HPM_P1;HPM_P2
2022/03/27 00:02:12;;;;;;;26.93;16.77;;;;;;;7.29;72.19;100272.49;4243852;82;21069;-85
2022/03/27 00:08:13;;;;;;;27.52;14.80;;;;;;;7.23;72.06;100274.59;4263753;83;21045;-86
2022/03/27 00:14:15;;;;;;;25.95;14.83;;;;;;;7.21;71.84;100274.66;4244616;82;21372;-86
2022/03/27 00:20:16;;;;;;;33.80;14.15;;;;;;;7.21;72.02;100276.83;4243555;83;21006;-86
2022/03/27 00:26:17;;;;;;;27.58;13.55;;;;;;;7.15;71.69;100275.40;4250960;81;21654;-86
2022/03/27 00:32:20;;;;;;;31.55;13.30;;;;;;;7.07;71.15;100289.00;4238647;83;21036;-86
2022/03/27 00:38:22;;;;;;;12.13;6.17;;;;;;;6.97;70.10;100302.38;4255386;81;21042;-87
2022/03/27 00:44:24;;;;;;;20.08;9.78;;;;;;;6.70;66.47;100318.20;4255837;83;21044;-87
2022/03/27 00:50:25;;;;;;;8.05;4.67;;;;;;;6.26;65.82;100329.49;4253561;82;21643;-86
2022/03/27 00:56:27;;;;;;;8.48;2.70;;;;;;;5.92;63.97;100329.92;4248047;82;21072;-86
2022/03/27 01:02:28;;;;;;;9.50;3.37;;;;;;;5.62;60.05;100342.89;4266560;81;21612;-85
2022/03/27 01:15:53;;;;;;;7.25;3.27;;;;;;;4.98;58.12;100358.26;4255435;83;21058;-85
2022/03/27 01:21:57;;;;;;;6.83;2.77;;;;;;;4.72;59.29;100362.06;4165479;83;20970;-85
2022/03/27 01:28:34;;;;;;;7.92;3.40;;;;;;;4.47;58.62;100373.42;4172516;83;21062;-86
2022/03/27 01:34:44;;;;;;;8.18;3.33;;;;;;;4.20;58.33;100370.15;4170843;83;21021;-86
2022/03/27 01:47:38;;;;;;;9.53;3.60;;;;;;;3.73;57.80;100384.56;4248941;83;21073;-85
2022/03/27 01:53:47;;;;;;;7.93;3.17;;;;;;;3.58;57.81;100391.56;4305255;79;21083;-85
2022/03/27 02:06:37;;;;;;;9.83;3.75;;;;;;;3.26;57.82;100396.95;4295014;81;21542;-86
2022/03/27 02:12:38;;;;;;;8.35;3.50;;;;;;;3.01;57.72;100407.02;4322058;81;21028;-85
2022/03/27 02:18:46;;;;;;;8.08;3.45;;;;;;;2.80;57.62;100415.12;4308330;81;21060;-85
2022/03/27 02:24:48;;;;;;;30.55;9.28;;;;;;;2.62;57.66;100422.66;4320537;80;21520;-85
2022/03/27 02:30:55;;;;;;;26.35;7.67;;;;;;;2.49;57.96;100430.09;4326579;81;21556;-85
2022/03/27 02:36:57;;;;;;;60.63;18.60;;;;;;;2.30;58.06;100433.27;4310007;80;21063;-85
2022/03/27 02:43:14;;;;;;;48.50;13.28;;;;;;;2.14;58.29;100431.83;4309548;81;21001;-85
2022/03/27 02:49:21;;;;;;;;;;;;;;;2.11;58.75;100432.94;4328500;81;21020;-85
2022/03/27 02:55:25;;;;;;;;;;;;;;;1.98;59.12;100447.09;4253717;81;20355;-84
2022/03/27 03:01:26;;;;;;;8.58;4.05;;;;;;;1.66;58.81;100452.23;4265891;82;20116;-84
2022/03/27 03:07:29;;;;;;;13.70;4.42;;;;;;;1.30;58.89;100447.05;4258804;82;21041;-84
2022/03/27 03:13:31;;;;;;;15.30;4.67;;;;;;;1.01;59.21;100453.42;4260542;82;21061;-83
2022/03/27 03:19:33;;;;;;;11.78;4.60;;;;;;;0.76;59.47;100454.88;4270412;83;20993;-85
2022/03/27 03:25:42;;;;;;;8.40;2.85;;;;;;;0.56;59.82;100455.77;4268282;83;20976;-84
2022/03/27 03:31:56;;;;;;;9.50;3.72;;;;;;;0.32;59.93;100453.92;4239252;82;21084;-84
2022/03/27 03:38:00;;;;;;;9.50;3.45;;;;;;;0.10;60.37;100452.07;4227964;83;21179;-84
2022/03/27 04:11:47;;;;;;;19.93;5.70;;;;;;;-0.11;62.22;100490.33;4255214;81;21412;-83
2022/03/27 04:17:50;;;;;;;14.33;4.67;;;;;;;-0.33;62.18;100491.91;4274818;81;21590;-84
2022/03/27 04:23:51;;;;;;;22.40;5.53;;;;;;;-0.47;62.76;100505.61;4268974;81;21671;-83
2022/03/27 04:29:52;;;;;;;11.73;4.43;;;;;;;-0.50;63.25;100505.36;4268831;81;21063;-83
2022/03/27 04:35:54;;;;;;;12.97;4.40;;;;;;;-0.66;63.35;100515.80;4276353;81;21056;-82
2022/03/27 04:41:55;;;;;;;15.43;4.50;;;;;;;-0.76;63.50;100521.95;4272887;81;21648;-82
2022/03/27 04:47:57;;;;;;;12.70;4.40;;;;;;;-0.77;63.94;100523.03;4271418;81;21367;-82
2022/03/27 04:53:59;;;;;;;17.57;5.27;;;;;;;-0.80;64.20;100539.66;4277043;81;21064;-82
2022/03/27 05:00:01;;;;;;;13.40;4.50;;;;;;;-0.74;64.68;100542.67;4276460;81;20981;-81
2022/03/27 05:06:33;;;;;;;19.77;4.80;;;;;;;-0.73;64.70;100544.80;4281274;81;21981;-81
2022/03/27 05:12:40;;;;;;;15.50;3.97;;;;;;;-0.70;65.20;100545.09;4262176;82;21073;-84
2022/03/27 05:18:41;;;;;;;10.40;3.47;;;;;;;-0.59;65.67;100548.62;4290278;81;21001;-81
2022/03/27 05:24:43;;;;;;;16.53;4.40;;;;;;;-0.29;66.60;100551.39;4311102;81;21504;-82
2022/03/27 05:30:44;;;;;;;12.93;3.73;;;;;;;-0.12;65.69;100555.47;4314620;81;21066;-81
2022/03/27 05:36:59;;;;;;;13.13;4.17;;;;;;;-0.08;66.16;100561.12;4275599;82;22348;-81
2022/03/27 05:43:01;;;;;;;16.07;4.72;;;;;;;0.22;66.64;100564.38;4277206;82;21057;-81
2022/03/27 05:49:03;;;;;;;9.70;4.05;;;;;;;0.55;66.89;100570.00;4271608;82;21018;-83
2022/03/27 05:55:07;;;;;;;10.98;4.65;;;;;;;0.85;67.33;100579.92;4311370;81;21068;-81
2022/03/27 06:01:08;;;;;;;21.00;5.60;;;;;;;1.84;67.07;100598.70;4312866;80;20988;-82
2022/03/27 06:14:52;;;;;;;34.55;12.98;;;;;;;2.40;66.63;100606.69;4243416;81;21940;-82
2022/03/27 06:28:00;;;;;;;13.45;4.80;;;;;;;3.92;65.79;100615.05;4228863;83;22010;-83
2022/03/27 06:34:04;;;;;;;16.02;5.25;;;;;;;4.40;63.74;100611.64;4232839;82;20998;-83
2022/03/27 06:40:12;;;;;;;14.40;5.33;;;;;;;4.75;63.19;100611.85;4225161;83;21061;-84
2022/03/27 06:46:16;;;;;;;13.38;3.90;;;;;;;4.95;62.17;100616.67;4229275;83;21088;-84
2022/03/27 06:52:20;;;;;;;12.40;4.60;;;;;;;5.21;62.27;100619.98;4230203;83;20985;-84
2022/03/27 06:58:26;;;;;;;12.53;4.20;;;;;;;5.78;61.69;100621.28;4241327;83;21074;-84
2022/03/27 07:18:38;;;;;;;8.70;3.20;;;;;;;6.81;59.20;100640.13;4255342;82;21041;-85
2022/03/27 07:24:41;;;;;;;9.45;2.92;;;;;;;6.94;58.06;100635.14;4266040;82;21150;-85
2022/03/27 07:30:43;;;;;;;4.30;2.05;;;;;;;7.26;57.38;100645.75;4241808;81;21016;-85
2022/03/27 07:36:45;;;;;;;5.87;1.98;;;;;;;7.51;56.79;100649.70;4258413;82;21028;-85
2022/03/27 07:42:50;;;;;;;2.55;0.90;;;;;;;7.92;56.74;100654.24;4259418;82;21986;-84
2022/03/27 07:48:51;;;;;;;4.08;0.95;;;;;;;7.86;53.53;100663.12;4259507;82;21560;-87
2022/03/27 07:54:53;;;;;;;8.38;1.47;;;;;;;7.48;46.21;100670.77;4256735;81;21042;-87
2022/03/27 08:00:54;;;;;;;4.85;1.30;;;;;;;7.49;47.55;100677.26;4266061;82;21032;-86
2022/03/27 08:06:55;;;;;;;4.97;1.30;;;;;;;8.00;49.52;100678.01;4257702;82;21494;-86
2022/03/27 08:12:57;;;;;;;3.62;1.20;;;;;;;8.73;46.90;100675.22;4260749;81;21063;-87
2022/03/27 08:18:58;;;;;;;3.72;0.82;;;;;;;8.85;45.57;100682.73;4273010;80;21037;-87
2022/03/27 08:24:59;;;;;;;3.60;1.67;;;;;;;8.90;44.16;100684.75;4286468;81;21016;-86
2022/03/27 08:31:01;;;;;;;5.72;1.45;;;;;;;9.09;40.79;100678.39;4280310;80;20997;-87
2022/03/27 08:37:07;;;;;;;2.83;0.98;;;;;;;9.33;41.87;100674.53;4285891;81;21038;-87
2022/03/27 08:43:46;;;;;;;3.10;1.20;;;;;;;9.17;38.65;100659.81;4280317;81;20961;-86
2022/03/27 08:50:17;;;;;;;7.00;1.30;;;;;;;9.35;41.98;100661.34;4268901;81;21583;-86
2022/03/27 08:56:18;;;;;;;5.10;1.15;;;;;;;9.52;40.49;100661.88;4273777;81;21008;-85
2022/03/27 09:02:26;;;;;;;3.67;0.90;;;;;;;9.60;41.30;100647.34;4274546;80;21002;-84
2022/03/27 09:08:25;;;;;;;1.87;0.90;;;;;;;10.01;40.19;100636.50;4244445;81;179020;-87
2022/03/27 09:14:27;;;;;;;3.55;1.05;;;;;;;10.29;40.48;100631.38;4247610;82;21394;-87
2022/03/27 09:20:43;;;;;;;3.98;1.05;;;;;;;11.49;38.92;100625.48;4226526;84;20988;-86
2022/03/27 09:26:58;;;;;;;2.42;0.80;;;;;;;12.26;35.79;100627.39;4215138;84;21114;-87
2022/03/27 09:32:59;;;;;;;2.72;0.90;;;;;;;12.38;37.11;100617.77;4212610;83;21019;-87
2022/03/27 09:39:15;;;;;;;2.17;0.80;;;;;;;13.21;37.11;100602.63;4216858;83;21131;-87
2022/03/27 09:45:21;;;;;;;3.55;0.82;;;;;;;13.80;36.18;100609.39;4198694;84;21381;-86
2022/03/27 09:51:22;;;;;;;1.67;0.70;;;;;;;14.74;34.32;100602.44;4216054;83;22028;-88
2022/03/27 09:57:36;;;;;;;2.52;0.70;;;;;;;14.42;30.73;100607.89;4219943;83;21507;-86
2022/03/27 10:04:03;;;;;;;3.05;0.80;;;;;;;15.02;33.18;100609.87;4219640;83;20991;-87
2022/03/27 10:10:08;;;;;;;5.37;0.90;;;;;;;15.44;31.52;100599.63;4218262;83;21082;-86
2022/03/27 10:16:10;;;;;;;2.17;0.60;;;;;;;15.55;27.48;100599.22;4216760;83;21634;-87
2022/03/27 10:22:16;;;;;;;5.03;1.05;;;;;;;15.98;30.66;100593.78;4244629;83;21049;-85
2022/03/27 10:28:19;;;;;;;1.40;0.70;;;;;;;16.24;28.73;100594.34;4264593;82;21102;-85
2022/03/27 10:34:22;;;;;;;3.40;0.80;;;;;;;16.16;29.44;100581.00;4260892;82;21035;-87
2022/03/27 10:40:51;;;;;;;1.60;0.50;;;;;;;16.51;28.48;100583.46;4263180;82;21035;-85
2022/03/27 10:47:14;;;;;;;2.25;0.70;;;;;;;16.55;27.50;100577.41;4260928;82;21543;-87
2022/03/27 10:53:18;;;;;;;2.65;0.82;;;;;;;16.66;28.04;100575.56;4239772;82;21082;-86
2022/03/27 10:59:24;;;;;;;3.00;0.68;;;;;;;16.20;25.46;100569.42;4264353;82;21106;-86
2022/03/27 11:05:37;;;;;;;1.10;0.40;;;;;;;16.96;26.25;100563.85;4262403;83;20999;-84
2022/03/27 11:11:44;;;;;;;4.62;0.98;;;;;;;17.16;24.43;100544.48;4260153;82;21067;-85
2022/03/27 11:17:49;;;;;;;4.50;0.75;;;;;;;16.68;24.14;100535.87;4254620;82;21066;-85
2022/03/27 11:23:51;;;;;;;2.17;0.70;;;;;;;17.24;24.50;100522.00;4225061;83;20999;-86
2022/03/27 11:30:11;;;;;;;2.22;0.53;;;;;;;16.94;23.00;100519.17;4226402;84;21593;-84
2022/03/27 11:36:23;;;;;;;1.72;0.60;;;;;;;16.87;21.83;100514.36;4224625;83;21126;-85
2022/03/27 11:42:29;;;;;;;2.25;0.98;;;;;;;16.76;20.78;100506.55;4223826;83;21030;-85
2022/03/27 11:48:31;;;;;;;2.08;0.62;;;;;;;16.52;21.21;100490.48;4225052;83;21071;-86
2022/03/27 11:54:32;;;;;;;2.75;0.60;;;;;;;16.15;22.30;100486.87;4224414;83;21550;-85
2022/03/27 12:00:44;;;;;;;1.40;0.60;;;;;;;15.87;22.24;100477.42;4223220;83;22402;-85
2022/03/27 12:06:46;;;;;;;2.83;1.52;;;;;;;15.57;22.15;100473.27;4224290;83;21034;-85
2022/03/27 12:13:08;;;;;;;1.72;0.57;;;;;;;15.00;21.44;100468.02;4137396;86;21303;-87
2022/03/27 12:19:13;;;;;;;5.30;1.92;;;;;;;14.45;21.94;100459.77;4136348;84;20991;-87
2022/03/27 12:25:29;;;;;;;1.87;0.50;;;;;;;14.68;21.88;100448.74;4126379;84;20991;-85
2022/03/27 12:31:30;;;;;;;1.90;0.53;;;;;;;14.45;21.71;100435.54;4129376;84;21078;-86
2022/03/27 12:37:35;;;;;;;1.62;0.70;;;;;;;14.19;22.22;100426.55;4136835;84;21023;-84
2022/03/27 12:43:43;;;;;;;3.75;0.55;;;;;;;14.05;20.94;100424.33;4145122;84;21063;-86
2022/03/27 12:49:51;;;;;;;1.67;0.65;;;;;;;13.92;22.07;100409.12;4137596;84;21939;-85
2022/03/27 12:56:10;;;;;;;2.50;0.85;;;;;;;13.99;21.80;100399.63;4137797;84;21126;-86
2022/03/27 13:02:27;;;;;;;3.67;0.95;;;;;;;14.26;22.33;100395.63;4145585;86;21126;-86
2022/03/27 13:08:34;;;;;;;;;;;;;;;14.32;22.22;100387.28;4145033;84;21019;-86
2022/03/27 13:14:44;;;;;;;1.87;0.77;;;;;;;13.80;21.54;100383.70;4145055;85;20137;-85
2022/03/27 13:20:47;;;;;;;2.02;0.72;;;;;;;13.25;22.09;100382.73;4133070;84;21055;-85
2022/03/27 13:26:53;;;;;;;2.98;1.10;;;;;;;13.03;20.57;100369.66;4102268;85;21115;-85
2022/03/27 13:33:19;;;;;;;2.30;1.05;;;;;;;12.56;21.64;100377.34;4275603;83;21001;-85
2022/03/27 13:39:30;;;;;;;1.85;0.70;;;;;;;12.58;21.27;100370.92;4271381;83;21019;-85
2022/03/27 13:46:13;;;;;;;2.02;0.70;;;;;;;12.54;22.02;100370.02;4275589;83;21013;-86
2022/03/27 13:53:22;;;;;;;1.45;0.70;;;;;;;12.57;22.08;100360.29;4272998;83;21086;-85
2022/03/27 13:59:27;;;;;;;2.02;0.90;;;;;;;12.52;22.16;100350.38;4269024;83;21071;-85
2022/03/27 14:05:29;;;;;;;1.70;0.90;;;;;;;12.62;22.21;100346.30;4273931;82;21003;-85
2022/03/27 14:12:08;;;;;;;2.27;0.55;;;;;;;12.61;21.61;100339.99;4273441;83;21050;-85
2022/03/27 14:18:40;;;;;;;2.42;0.90;;;;;;;12.68;22.80;100331.13;4259881;83;21040;-85
2022/03/27 14:24:42;;;;;;;1.85;0.93;;;;;;;13.20;22.86;100319.77;4234675;83;20984;-85
2022/03/27 14:30:43;;;;;;;2.10;0.90;;;;;;;13.46;22.91;100312.47;4238320;82;21024;-86
2022/03/27 14:36:51;;;;;;;4.67;1.10;;;;;;;13.45;22.97;100306.73;4240464;83;21051;-86
2022/03/27 14:43:11;;;;;;;2.47;0.70;;;;;;;13.39;22.93;100304.66;4236254;83;21083;-85
2022/03/27 14:49:13;;;;;;;4.15;1.15;;;;;;;13.16;23.00;100291.39;4233195;83;21070;-86
2022/03/27 15:01:56;;;;;;;4.72;1.72;;;;;;;12.60;22.88;100301.89;4238775;82;21116;-86
2022/03/27 15:07:58;;;;;;;2.80;0.85;;;;;;;12.19;23.03;100288.71;4237723;84;21615;-85
2022/03/27 15:14:00;;;;;;;4.00;1.37;;;;;;;12.12;23.07;100289.33;4233226;84;21942;-85
2022/03/27 15:20:04;;;;;;;3.02;1.20;;;;;;;12.08;23.12;100277.47;4239065;82;21609;-86
2022/03/27 15:33:48;;;;;;;2.87;1.55;;;;;;;11.82;23.10;100273.09;4236912;84;21107;-85
2022/03/27 15:40:04;;;;;;;4.08;1.17;;;;;;;11.73;23.20;100267.53;4235958;83;21071;-86
2022/03/27 15:46:05;;;;;;;2.08;0.88;;;;;;;11.56;23.29;100259.02;4238434;83;21061;-86
2022/03/27 15:52:07;;;;;;;3.58;1.60;;;;;;;11.35;23.24;100252.95;4240049;83;20992;-85
2022/03/27 15:58:19;;;;;;;3.08;1.10;;;;;;;11.21;23.34;100254.50;4237434;83;21081;-85
2022/03/27 16:04:45;;;;;;;3.58;0.95;;;;;;;10.99;23.40;100245.65;4235500;84;21059;-85
2022/03/27 16:17:55;;;;;;;4.87;1.00;;;;;;;10.55;23.74;100237.67;4235817;83;21381;-85
2022/03/27 16:30:55;;;;;;;5.65;1.70;;;;;;;10.33;23.86;100227.20;4229845;84;21058;-86
2022/03/27 16:36:57;;;;;;;4.90;2.25;;;;;;;10.21;24.02;100227.22;4237988;84;21103;-85
2022/03/27 16:43:10;;;;;;;7.17;2.87;;;;;;;10.04;24.17;100231.52;4237528;84;21072;-85
2022/03/27 16:49:11;;;;;;;3.80;1.82;;;;;;;9.89;24.30;100230.24;4240265;84;21727;-85
2022/03/27 17:02:14;;;;;;;8.13;2.98;;;;;;;9.46;24.65;100214.88;4236409;84;21050;-85
2022/03/27 17:08:38;;;;;;;8.53;2.75;;;;;;;9.23;24.94;100209.59;4232635;84;21811;-85
2022/03/27 17:15:16;;;;;;;7.65;2.60;;;;;;;8.86;25.35;100210.02;4236410;84;20998;-85
2022/03/27 17:21:17;;;;;;;9.58;2.50;;;;;;;8.41;25.95;100212.37;4230037;82;21516;-85
2022/03/27 17:27:19;;;;;;;11.83;3.17;;;;;;;7.93;26.43;100205.38;4225448;84;21027;-85
2022/03/27 17:33:44;;;;;;;18.90;6.75;;;;;;;7.55;27.21;100210.02;4225757;84;21997;-85
2022/03/27 17:40:08;;;;;;;10.95;3.80;;;;;;;7.21;27.86;100210.11;4225286;84;20983;-85
2022/03/27 17:46:56;;;;;;;15.47;8.07;;;;;;;6.82;28.12;100219.84;4127377;84;20988;-85
2022/03/27 17:52:57;;;;;;;19.40;8.18;;;;;;;6.44;28.73;100219.42;4222698;84;22011;-84
2022/03/27 17:59:15;;;;;;;17.00;8.88;;;;;;;6.19;29.21;100227.20;4225753;83;21007;-84
2022/03/27 18:05:43;;;;;;;19.52;9.33;;;;;;;5.98;29.76;100226.16;4126118;84;21034;-85
2022/03/27 18:12:13;;;;;;;28.17;12.80;;;;;;;5.64;29.89;100230.08;4158734;85;21043;-84
2022/03/27 18:25:05;;;;;;;25.72;12.35;;;;;;;5.09;30.75;100234.21;4138278;84;21532;-84
2022/03/27 18:31:47;;;;;;;36.60;18.90;;;;;;;4.72;31.12;100238.09;4122271;86;21477;-84
2022/03/27 18:45:23;;;;;;;74.92;30.90;;;;;;;4.35;32.70;100236.23;4197435;85;21603;-85
2022/03/27 18:51:52;;;;;;;65.67;29.40;;;;;;;4.08;32.37;100234.89;4221574;83;21066;-84
2022/03/27 18:58:05;;;;;;;73.97;33.08;;;;;;;3.79;33.17;100227.64;4222301;83;21020;-85
2022/03/27 19:04:15;;;;;;;93.30;37.83;;;;;;;3.71;33.95;100225.05;4221201;83;21048;-84
2022/03/27 19:10:24;;;;;;;73.45;32.45;;;;;;;3.64;34.22;100213.83;4219828;83;21073;-84
2022/03/27 19:16:25;;;;;;;81.15;34.00;;;;;;;3.38;34.36;100208.64;4193347;84;20987;-85
2022/03/27 19:22:50;;;;;;;48.90;23.15;;;;;;;3.15;34.03;100212.27;4215890;82;21074;-85
2022/03/27 19:35:44;;;;;;;62.85;26.35;;;;;;;2.69;35.54;100207.37;4137699;85;21017;-84
2022/03/27 19:41:46;;;;;;;70.22;27.58;;;;;;;2.50;35.75;100200.63;4155290;85;21057;-84
2022/03/27 19:47:53;;;;;;;71.17;27.93;;;;;;;2.42;36.42;100195.06;4046651;85;21035;-84
2022/03/27 19:54:18;;;;;;;62.53;25.50;;;;;;;2.37;37.28;100198.64;4040327;86;21063;-84
2022/03/27 20:00:21;;;;;;;92.17;35.33;;;;;;;2.27;37.58;100189.89;4077635;85;21806;-84
2022/03/27 20:06:32;;;;;;;81.57;33.67;;;;;;;2.06;37.16;100197.98;4160627;85;21061;-83
2022/03/27 20:12:34;;;;;;;139.95;47.95;;;;;;;1.76;37.47;100203.76;4041296;86;21083;-84
2022/03/27 20:18:38;;;;;;;116.85;40.35;;;;;;;1.60;37.87;100199.89;4161531;85;21087;-84
2022/03/27 20:24:39;;;;;;;104.72;38.48;;;;;;;1.57;39.24;100205.05;4062699;84;21071;-83
2022/03/27 20:30:44;;;;;;;117.25;42.93;;;;;;;1.49;39.47;100197.58;4148684;85;21007;-84
2022/03/27 20:36:58;;;;;;;114.57;40.48;;;;;;;1.35;39.52;100199.35;4147521;84;21087;-84
2022/03/27 20:43:27;;;;;;;106.90;38.65;;;;;;;1.14;39.77;100197.95;4143384;85;21091;-83
2022/03/27 20:49:40;;;;;;;87.42;32.00;;;;;;;1.10;40.57;100192.31;4118628;86;21118;-83
2022/03/27 20:56:03;;;;;;;81.32;33.05;;;;;;;0.76;40.06;100205.02;4149856;84;21054;-83
2022/03/27 21:02:04;;;;;;;116.93;39.83;;;;;;;0.65;42.71;100194.59;4144620;85;21030;-83
2022/03/27 21:08:08;;;;;;;95.42;36.63;;;;;;;0.52;42.45;100185.25;4147814;85;21047;-84
2022/03/27 21:14:13;;;;;;;103.40;39.20;;;;;;;0.51;42.21;100183.65;4150069;85;21011;-83
2022/03/27 21:20:45;;;;;;;100.20;40.83;;;;;;;0.48;42.65;100172.09;4147886;84;21598;-83
2022/03/27 21:26:47;;;;;;;115.37;43.45;;;;;;;0.39;43.20;100168.39;4144112;85;22190;-84
2022/03/27 21:33:31;;;;;;;110.68;41.15;;;;;;;0.10;43.55;100157.23;4129193;85;22056;-83
2022/03/27 21:39:43;;;;;;;112.22;40.88;;;;;;;0.10;43.55;100157.23;4271084;82;21071;-83
2022/03/27 21:45:48;;;;;;;110.30;40.10;;;;;;;-0.02;43.26;100161.06;4274200;83;21035;-83
2022/03/27 21:51:54;;;;;;;110.67;43.00;;;;;;;-0.25;44.03;100163.64;4274896;83;21396;-83
2022/03/27 21:57:55;;;;;;;120.13;42.95;;;;;;;-0.23;44.83;100163.61;4274180;83;21140;-85
2022/03/27 22:03:58;;;;;;;111.28;41.15;;;;;;;-0.18;44.77;100160.09;4276939;83;21017;-83
2022/03/27 22:10:02;;;;;;;88.50;32.60;;;;;;;-0.25;45.31;100156.91;4274975;83;21045;-83
2022/03/27 22:16:18;;;;;;;74.57;30.40;;;;;;;-0.33;45.65;100153.45;4273135;82;21972;-83
2022/03/27 22:22:24;;;;;;;98.07;37.63;;;;;;;-0.46;45.32;100148.64;4275838;83;21053;-83
2022/03/27 22:28:26;;;;;;;;;;;;;;;-0.67;45.85;100142.53;4298461;82;21008;-84
2022/03/27 22:34:33;;;;;;;87.00;34.65;;;;;;;-0.67;47.42;100141.71;4313317;82;20305;-83
2022/03/27 22:40:35;;;;;;;78.03;32.63;;;;;;;-0.76;46.48;100140.14;4311941;82;21034;-83
2022/03/27 22:53:42;;;;;;;108.10;43.73;;;;;;;-0.92;47.58;100127.81;4315137;82;21466;-83
2022/03/27 22:59:51;;;;;;;72.30;31.70;;;;;;;-0.84;47.94;100129.94;4312166;82;21067;-83
2022/03/27 23:06:08;;;;;;;113.60;45.13;;;;;;;-1.04;48.04;100128.65;4307392;82;22031;-83
2022/03/27 23:12:17;;;;;;;92.20;40.17;;;;;;;-0.99;48.13;100121.11;4312681;82;25983;-83
2022/03/27 23:18:18;;;;;;;109.63;45.30;;;;;;;-0.94;49.00;100117.08;4312640;82;21559;-84
2022/03/27 23:24:24;;;;;;;107.33;40.83;;;;;;;-0.83;49.01;100112.72;4314223;82;21330;-83
2022/03/27 23:30:27;;;;;;;97.37;38.30;;;;;;;-0.94;49.08;100107.66;4251706;82;21062;-82
2022/03/27 23:36:29;;;;;;;83.77;34.13;;;;;;;-0.91;50.38;100108.46;4236934;83;21772;-82
2022/03/27 23:42:30;;;;;;;109.00;40.83;;;;;;;-1.12;49.33;100112.26;4235968;84;21014;-83
2022/03/27 23:48:31;;;;;;;99.47;40.30;;;;;;;-1.18;50.93;100100.73;4234185;83;21457;-82
2022/03/27 23:54:45;;;;;;;108.70;41.13;;;;;;;-1.15;51.28;100100.19;4236990;83;21595;-82
